Main page
METAR-TAF:

METAR-TAF

Airports :

Tri-Township Airport

Savanna, Illinois, United States

latitude: 42-02-45N, longitude: 090-06-28W, elevation: 617 ft

Current weather observation

The report was made 14 minutes ago, at 22:15 UTC
Calm wind
Temperature 21°F
Humidity 38%
Pressure 30.71 in. Hg
Visibility: 10 miles
Clear sky

METAR: KSFY 202215Z AUTO 00000KT 10SM CLR M06/M18 A3071 RMK AO2

Time: 16:29 (22:29 UTC)


TAF: missing

Weather observations and forecasts of more than 4000 airports (METAR and TAF reports).

The available stations are represented by yellow and red dots on the map.

Hover mouse over dot to see the name of the station.

Then click to see weather observations and forecasts.

To change the map : click on the green buttons with a black cross to zoom in, on the green button with a dash to zoom out, or on the green arrows for adjacent maps.


METAR-TAF: